sensor_id;sensor_type;location;lat;lon;timestamp;pressure;altitude;pressure_sealevel;temperature;humidity
75945;BME280;64628;50.104;14.614;2022-12-18T00:02:12;100135.06;;;-8.87;45.45
75945;BME280;64628;50.104;14.614;2022-12-18T00:04:38;100136.35;;;-9.14;44.86
75945;BME280;64628;50.104;14.614;2022-12-18T00:07:03;100137.98;;;-8.65;44.84
75945;BME280;64628;50.104;14.614;2022-12-18T00:09:30;100142.12;;;-8.79;45.23
75945;BME280;64628;50.104;14.614;2022-12-18T00:11:55;100145.67;;;-8.89;45.45
75945;BME280;64628;50.104;14.614;2022-12-18T00:14:21;100143.03;;;-9.20;46.11
75945;BME280;64628;50.104;14.614;2022-12-18T00:16:47;100147.34;;;-9.02;45.29
75945;BME280;64628;50.104;14.614;2022-12-18T00:19:12;100149.68;;;-9.19;45.94
75945;BME280;64628;50.104;14.614;2022-12-18T00:21:37;100147.22;;;-8.83;45.15
75945;BME280;64628;50.104;14.614;2022-12-18T00:24:03;100143.84;;;-9.07;45.17
75945;BME280;64628;50.104;14.614;2022-12-18T00:26:30;100143.67;;;-8.80;45.03
75945;BME280;64628;50.104;14.614;2022-12-18T00:28:54;100148.07;;;-9.07;45.26
75945;BME280;64628;50.104;14.614;2022-12-18T00:31:20;100151.55;;;-9.11;45.37
75945;BME280;64628;50.104;14.614;2022-12-18T00:33:45;100151.19;;;-8.94;45.09
75945;BME280;64628;50.104;14.614;2022-12-18T00:36:13;100152.56;;;-8.64;46.11
75945;BME280;64628;50.104;14.614;2022-12-18T00:38:35;100162.30;;;-9.13;48.33
75945;BME280;64628;50.104;14.614;2022-12-18T00:41:01;100165.91;;;-8.92;48.23
75945;BME280;64628;50.104;14.614;2022-12-18T00:43:26;100169.15;;;-8.97;47.58
75945;BME280;64628;50.104;14.614;2022-12-18T00:45:52;100172.71;;;-9.07;47.84
75945;BME280;64628;50.104;14.614;2022-12-18T00:48:17;100178.90;;;-9.05;46.68
75945;BME280;64628;50.104;14.614;2022-12-18T00:50:43;100179.70;;;-9.09;46.05
75945;BME280;64628;50.104;14.614;2022-12-18T00:53:08;100183.10;;;-9.01;46.40
75945;BME280;64628;50.104;14.614;2022-12-18T00:55:34;100185.31;;;-9.21;46.26
75945;BME280;64628;50.104;14.614;2022-12-18T00:57:59;100189.22;;;-9.01;46.06
75945;BME280;64628;50.104;14.614;2022-12-18T01:00:25;100188.40;;;-9.39;46.05
75945;BME280;64628;50.104;14.614;2022-12-18T01:02:50;100192.20;;;-8.98;45.95
75945;BME280;64628;50.104;14.614;2022-12-18T01:05:15;100196.81;;;-9.29;46.42
75945;BME280;64628;50.104;14.614;2022-12-18T01:07:41;100195.71;;;-8.96;46.58
75945;BME280;64628;50.104;14.614;2022-12-18T01:10:09;100196.53;;;-8.81;46.72
75945;BME280;64628;50.104;14.614;2022-12-18T01:12:32;100195.48;;;-9.20;45.84
75945;BME280;64628;50.104;14.614;2022-12-18T01:14:58;100198.19;;;-8.90;45.93
75945;BME280;64628;50.104;14.614;2022-12-18T01:17:24;100202.83;;;-8.64;46.21
75945;BME280;64628;50.104;14.614;2022-12-18T01:19:49;100205.91;;;-8.63;46.38
75945;BME280;64628;50.104;14.614;2022-12-18T01:22:14;100206.58;;;-8.42;45.74
75945;BME280;64628;50.104;14.614;2022-12-18T01:24:39;100207.42;;;-8.83;45.70
75945;BME280;64628;50.104;14.614;2022-12-18T01:27:04;100208.08;;;-8.94;45.75
75945;BME280;64628;50.104;14.614;2022-12-18T01:29:30;100208.95;;;-8.89;45.56
75945;BME280;64628;50.104;14.614;2022-12-18T01:31:56;100214.22;;;-8.28;45.58
75945;BME280;64628;50.104;14.614;2022-12-18T01:34:20;100215.21;;;-8.82;45.91
75945;BME280;64628;50.104;14.614;2022-12-18T01:36:45;100216.89;;;-8.53;45.60
75945;BME280;64628;50.104;14.614;2022-12-18T01:39:12;100214.73;;;-8.46;45.28
75945;BME280;64628;50.104;14.614;2022-12-18T01:41:37;100216.53;;;-8.75;45.42
75945;BME280;64628;50.104;14.614;2022-12-18T01:44:01;100219.94;;;-8.57;46.02
75945;BME280;64628;50.104;14.614;2022-12-18T01:46:27;100224.50;;;-8.25;46.17
75945;BME280;64628;50.104;14.614;2022-12-18T01:48:57;100226.65;;;-8.65;45.79
75945;BME280;64628;50.104;14.614;2022-12-18T01:51:18;100225.73;;;-8.25;45.68
75945;BME280;64628;50.104;14.614;2022-12-18T01:53:44;100225.52;;;-8.49;45.70
75945;BME280;64628;50.104;14.614;2022-12-18T01:56:13;100229.93;;;-8.21;46.20
75945;BME280;64628;50.104;14.614;2022-12-18T01:58:39;100223.98;;;-8.40;46.05
75945;BME280;64628;50.104;14.614;2022-12-18T02:00:59;100226.76;;;-8.32;45.88
75945;BME280;64628;50.104;14.614;2022-12-18T02:03:25;100232.11;;;-7.93;47.85
75945;BME280;64628;50.104;14.614;2022-12-18T02:05:57;100235.11;;;-8.17;49.04
75945;BME280;64628;50.104;14.614;2022-12-18T02:08:20;100236.23;;;-7.63;49.07
75945;BME280;64628;50.104;14.614;2022-12-18T02:10:47;100239.69;;;-7.93;49.20
75945;BME280;64628;50.104;14.614;2022-12-18T02:13:12;100239.28;;;-7.63;49.26
75945;BME280;64628;50.104;14.614;2022-12-18T02:15:38;100239.02;;;-7.82;49.25
75945;BME280;64628;50.104;14.614;2022-12-18T02:18:02;100242.69;;;-7.56;49.22
75945;BME280;64628;50.104;14.614;2022-12-18T02:20:28;100242.85;;;-7.76;49.05
75945;BME280;64628;50.104;14.614;2022-12-18T02:23:00;100243.34;;;-7.84;49.19
75945;BME280;64628;50.104;14.614;2022-12-18T02:25:24;100245.69;;;-7.81;49.17
75945;BME280;64628;50.104;14.614;2022-12-18T02:27:40;100248.28;;;-7.76;49.45
75945;BME280;64628;50.104;14.614;2022-12-18T02:30:06;100252.84;;;-7.76;49.46
75945;BME280;64628;50.104;14.614;2022-12-18T02:32:34;100255.10;;;-7.51;49.30
75945;BME280;64628;50.104;14.614;2022-12-18T02:34:56;100255.13;;;-7.88;49.16
75945;BME280;64628;50.104;14.614;2022-12-18T02:37:21;100255.80;;;-7.43;49.14
75945;BME280;64628;50.104;14.614;2022-12-18T02:39:48;100253.14;;;-7.64;49.78
75945;BME280;64628;50.104;14.614;2022-12-18T02:42:12;100254.70;;;-7.83;50.33
75945;BME280;64628;50.104;14.614;2022-12-18T02:44:42;100259.72;;;-6.95;49.91
75945;BME280;64628;50.104;14.614;2022-12-18T02:47:04;100263.09;;;-7.00;49.24
75945;BME280;64628;50.104;14.614;2022-12-18T02:49:36;100255.69;;;-7.33;49.34
75945;BME280;64628;50.104;14.614;2022-12-18T02:52:02;100254.16;;;-7.30;49.53
75945;BME280;64628;50.104;14.614;2022-12-18T02:54:31;100257.61;;;-7.00;49.42
75945;BME280;64628;50.104;14.614;2022-12-18T02:56:49;100257.62;;;-7.24;49.19
75945;BME280;64628;50.104;14.614;2022-12-18T02:59:14;100256.87;;;-7.28;49.43
75945;BME280;64628;50.104;14.614;2022-12-18T03:01:40;100259.55;;;-7.19;49.35
75945;BME280;64628;50.104;14.614;2022-12-18T03:04:05;100257.23;;;-7.30;49.20
75945;BME280;64628;50.104;14.614;2022-12-18T03:06:30;100259.53;;;-7.11;49.17
75945;BME280;64628;50.104;14.614;2022-12-18T03:08:57;100263.74;;;-7.03;48.84
75945;BME280;64628;50.104;14.614;2022-12-18T03:11:19;100266.66;;;-6.91;48.69
75945;BME280;64628;50.104;14.614;2022-12-18T03:13:47;100266.07;;;-6.57;48.38
75945;BME280;64628;50.104;14.614;2022-12-18T03:16:12;100269.02;;;-6.91;48.64
75945;BME280;64628;50.104;14.614;2022-12-18T03:18:37;100271.57;;;-6.94;48.93
75945;BME280;64628;50.104;14.614;2022-12-18T03:21:04;100271.82;;;-6.80;48.75
75945;BME280;64628;50.104;14.614;2022-12-18T03:23:29;100272.01;;;-6.83;48.65
75945;BME280;64628;50.104;14.614;2022-12-18T03:25:54;100276.25;;;-6.62;48.37
75945;BME280;64628;50.104;14.614;2022-12-18T03:28:20;100279.51;;;-6.59;48.48
75945;BME280;64628;50.104;14.614;2022-12-18T03:30:44;100282.44;;;-6.43;48.33
75945;BME280;64628;50.104;14.614;2022-12-18T03:33:12;100285.16;;;-6.17;47.78
75945;BME280;64628;50.104;14.614;2022-12-18T03:35:38;100286.06;;;-6.36;47.56
75945;BME280;64628;50.104;14.614;2022-12-18T03:37:59;100281.28;;;-6.11;47.55
75945;BME280;64628;50.104;14.614;2022-12-18T03:40:31;100281.93;;;-6.11;47.36
75945;BME280;64628;50.104;14.614;2022-12-18T03:42:52;100284.78;;;-6.29;47.19
75945;BME280;64628;50.104;14.614;2022-12-18T03:45:22;100285.29;;;-6.03;46.97
75945;BME280;64628;50.104;14.614;2022-12-18T03:47:49;100283.58;;;-6.18;47.02
75945;BME280;64628;50.104;14.614;2022-12-18T03:50:12;100284.77;;;-6.48;46.90
75945;BME280;64628;50.104;14.614;2022-12-18T03:52:36;100289.21;;;-6.26;46.92
75945;BME280;64628;50.104;14.614;2022-12-18T03:54:59;100291.25;;;-6.08;46.69
75945;BME280;64628;50.104;14.614;2022-12-18T03:57:26;100294.70;;;-6.02;46.25
75945;BME280;64628;50.104;14.614;2022-12-18T03:59:51;100296.97;;;-6.17;46.69
75945;BME280;64628;50.104;14.614;2022-12-18T04:02:16;100297.10;;;-6.14;46.82
75945;BME280;64628;50.104;14.614;2022-12-18T04:04:40;100298.26;;;-6.05;46.69
75945;BME280;64628;50.104;14.614;2022-12-18T04:07:05;100301.26;;;-5.75;46.44
75945;BME280;64628;50.104;14.614;2022-12-18T04:09:32;100300.45;;;-6.00;46.49
75945;BME280;64628;50.104;14.614;2022-12-18T04:11:56;100305.46;;;-5.54;46.12
75945;BME280;64628;50.104;14.614;2022-12-18T04:14:22;100308.02;;;-5.88;46.45
75945;BME280;64628;50.104;14.614;2022-12-18T04:16:47;100306.67;;;-5.89;46.26
75945;BME280;64628;50.104;14.614;2022-12-18T04:19:12;100312.65;;;-5.75;46.02
75945;BME280;64628;50.104;14.614;2022-12-18T04:21:37;100309.09;;;-5.67;46.23
75945;BME280;64628;50.104;14.614;2022-12-18T04:24:04;100307.58;;;-5.75;46.19
75945;BME280;64628;50.104;14.614;2022-12-18T04:26:29;100308.36;;;-5.72;46.63
75945;BME280;64628;50.104;14.614;2022-12-18T04:28:55;100310.82;;;-5.60;46.40
75945;BME280;64628;50.104;14.614;2022-12-18T04:31:20;100317.17;;;-5.76;46.91
75945;BME280;64628;50.104;14.614;2022-12-18T04:33:45;100315.71;;;-5.69;46.84
75945;BME280;64628;50.104;14.614;2022-12-18T04:36:11;100318.20;;;-5.52;47.06
75945;BME280;64628;50.104;14.614;2022-12-18T04:38:36;100324.78;;;-5.19;46.81
75945;BME280;64628;50.104;14.614;2022-12-18T04:41:02;100321.55;;;-5.43;46.77
75945;BME280;64628;50.104;14.614;2022-12-18T04:43:28;100323.03;;;-4.97;46.71
75945;BME280;64628;50.104;14.614;2022-12-18T04:45:52;100320.66;;;-5.13;46.54
75945;BME280;64628;50.104;14.614;2022-12-18T04:48:18;100319.82;;;-5.17;46.65
75945;BME280;64628;50.104;14.614;2022-12-18T04:50:44;100318.43;;;-5.24;47.01
75945;BME280;64628;50.104;14.614;2022-12-18T04:53:09;100312.93;;;-5.16;47.05
75945;BME280;64628;50.104;14.614;2022-12-18T04:55:34;100308.73;;;-5.16;47.14
75945;BME280;64628;50.104;14.614;2022-12-18T04:58:00;100315.29;;;-4.99;46.83
75945;BME280;64628;50.104;14.614;2022-12-18T05:00:26;100318.63;;;-5.18;47.32
75945;BME280;64628;50.104;14.614;2022-12-18T05:02:52;100316.93;;;-4.81;47.21
75945;BME280;64628;50.104;14.614;2022-12-18T05:05:17;100320.86;;;-4.86;46.78
75945;BME280;64628;50.104;14.614;2022-12-18T05:07:43;100325.62;;;-5.07;46.88
75945;BME280;64628;50.104;14.614;2022-12-18T05:10:09;100334.42;;;-4.68;46.92
75945;BME280;64628;50.104;14.614;2022-12-18T05:12:34;100333.59;;;-5.10;46.78
75945;BME280;64628;50.104;14.614;2022-12-18T05:15:00;100335.48;;;-4.85;46.75
75945;BME280;64628;50.104;14.614;2022-12-18T05:17:25;100329.90;;;-4.57;46.74
75945;BME280;64628;50.104;14.614;2022-12-18T05:19:50;100330.36;;;-4.75;47.00
75945;BME280;64628;50.104;14.614;2022-12-18T05:22:16;100336.90;;;-4.85;46.42
75945;BME280;64628;50.104;14.614;2022-12-18T05:24:41;100344.33;;;-4.77;46.15
75945;BME280;64628;50.104;14.614;2022-12-18T05:27:06;100349.58;;;-4.61;46.04
75945;BME280;64628;50.104;14.614;2022-12-18T05:29:31;100350.17;;;-4.72;46.76
75945;BME280;64628;50.104;14.614;2022-12-18T05:31:57;100358.09;;;-4.92;47.16
75945;BME280;64628;50.104;14.614;2022-12-18T05:34:22;100360.18;;;-4.75;47.24
75945;BME280;64628;50.104;14.614;2022-12-18T05:36:47;100359.23;;;-4.72;47.59
75945;BME280;64628;50.104;14.614;2022-12-18T05:39:13;100358.52;;;-4.86;47.54
75945;BME280;64628;50.104;14.614;2022-12-18T05:41:37;100359.26;;;-4.89;47.78
75945;BME280;64628;50.104;14.614;2022-12-18T05:44:03;100363.05;;;-4.88;47.98
75945;BME280;64628;50.104;14.614;2022-12-18T05:46:28;100366.52;;;-4.51;47.73
75945;BME280;64628;50.104;14.614;2022-12-18T05:48:53;100369.01;;;-4.62;47.66
75945;BME280;64628;50.104;14.614;2022-12-18T05:51:21;100370.39;;;-4.55;47.71
75945;BME280;64628;50.104;14.614;2022-12-18T05:53:45;100372.37;;;-4.35;47.75
75945;BME280;64628;50.104;14.614;2022-12-18T05:56:12;100377.41;;;-4.44;47.76
75945;BME280;64628;50.104;14.614;2022-12-18T05:58:35;100377.41;;;-4.31;47.51
75945;BME280;64628;50.104;14.614;2022-12-18T06:01:07;100379.47;;;-4.29;47.56
75945;BME280;64628;50.104;14.614;2022-12-18T06:03:26;100380.80;;;-4.46;47.69
75945;BME280;64628;50.104;14.614;2022-12-18T06:05:51;100379.80;;;-4.51;48.33
75945;BME280;64628;50.104;14.614;2022-12-18T06:08:17;100380.83;;;-4.72;48.94
75945;BME280;64628;50.104;14.614;2022-12-18T06:10:49;100375.86;;;-4.62;48.87
75945;BME280;64628;50.104;14.614;2022-12-18T06:13:08;100380.08;;;-4.38;48.53
75945;BME280;64628;50.104;14.614;2022-12-18T06:15:36;100387.50;;;-4.20;48.31
75945;BME280;64628;50.104;14.614;2022-12-18T06:18:00;100383.18;;;-4.45;48.69
75945;BME280;64628;50.104;14.614;2022-12-18T06:20:24;100388.21;;;-4.39;48.95
75945;BME280;64628;50.104;14.614;2022-12-18T06:22:50;100394.62;;;-4.50;49.19
75945;BME280;64628;50.104;14.614;2022-12-18T06:25:15;100394.84;;;-4.77;48.87
75945;BME280;64628;50.104;14.614;2022-12-18T06:27:40;100396.73;;;-4.42;48.82
75945;BME280;64628;50.104;14.614;2022-12-18T06:30:06;100409.12;;;-4.67;49.23
75945;BME280;64628;50.104;14.614;2022-12-18T06:32:30;100407.28;;;-4.57;49.11
75945;BME280;64628;50.104;14.614;2022-12-18T06:34:56;100410.44;;;-4.47;49.30
75945;BME280;64628;50.104;14.614;2022-12-18T06:37:22;100410.01;;;-4.95;49.41
75945;BME280;64628;50.104;14.614;2022-12-18T06:39:47;100412.68;;;-4.52;49.30
75945;BME280;64628;50.104;14.614;2022-12-18T06:42:13;100419.53;;;-4.53;49.28
75945;BME280;64628;50.104;14.614;2022-12-18T06:44:38;100425.39;;;-5.22;50.01
75945;BME280;64628;50.104;14.614;2022-12-18T06:47:04;100431.76;;;-5.03;50.66
75945;BME280;64628;50.104;14.614;2022-12-18T06:49:29;100437.98;;;-4.54;49.91
75945;BME280;64628;50.104;14.614;2022-12-18T06:51:54;100437.96;;;-4.79;49.00
75945;BME280;64628;50.104;14.614;2022-12-18T06:54:19;100445.37;;;-4.86;49.18
75945;BME280;64628;50.104;14.614;2022-12-18T06:56:45;100449.49;;;-4.58;49.21
75945;BME280;64628;50.104;14.614;2022-12-18T06:59:11;100445.32;;;-4.84;48.78
75945;BME280;64628;50.104;14.614;2022-12-18T07:01:35;100452.40;;;-4.58;48.76
75945;BME280;64628;50.104;14.614;2022-12-18T07:04:00;100459.32;;;-4.47;48.81
75945;BME280;64628;50.104;14.614;2022-12-18T07:06:26;100459.48;;;-4.47;48.17
75945;BME280;64628;50.104;14.614;2022-12-18T07:08:53;100466.37;;;-4.88;48.13
75945;BME280;64628;50.104;14.614;2022-12-18T07:11:18;100471.77;;;-4.71;48.49
75945;BME280;64628;50.104;14.614;2022-12-18T07:13:43;100473.51;;;-5.11;48.46
75945;BME280;64628;50.104;14.614;2022-12-18T07:16:10;100479.10;;;-4.79;48.54
75945;BME280;64628;50.104;14.614;2022-12-18T07:18:35;100482.41;;;-4.98;49.07
75945;BME280;64628;50.104;14.614;2022-12-18T07:21:03;100478.50;;;-5.07;49.27
75945;BME280;64628;50.104;14.614;2022-12-18T07:23:25;100479.88;;;-5.04;49.27
75945;BME280;64628;50.104;14.614;2022-12-18T07:25:50;100477.18;;;-5.21;48.96
75945;BME280;64628;50.104;14.614;2022-12-18T07:28:16;100475.21;;;-5.11;49.06
75945;BME280;64628;50.104;14.614;2022-12-18T07:30:42;100477.76;;;-4.80;48.18
75945;BME280;64628;50.104;14.614;2022-12-18T07:33:07;100482.09;;;-4.62;47.57
75945;BME280;64628;50.104;14.614;2022-12-18T07:35:33;100484.76;;;-4.58;47.81
75945;BME280;64628;50.104;14.614;2022-12-18T07:38:01;100489.21;;;-4.85;48.31
75945;BME280;64628;50.104;14.614;2022-12-18T07:40:23;100500.33;;;-4.61;47.92
75945;BME280;64628;50.104;14.614;2022-12-18T07:42:48;100506.19;;;-5.58;49.14
75945;BME280;64628;50.104;14.614;2022-12-18T07:45:14;100509.89;;;-4.81;48.39
75945;BME280;64628;50.104;14.614;2022-12-18T07:47:39;100515.07;;;-5.02;48.42
75945;BME280;64628;50.104;14.614;2022-12-18T07:50:05;100518.30;;;-4.89;48.38
75945;BME280;64628;50.104;14.614;2022-12-18T07:52:30;100519.43;;;-4.79;48.58
75945;BME280;64628;50.104;14.614;2022-12-18T07:54:55;100520.92;;;-4.70;48.23
75945;BME280;64628;50.104;14.614;2022-12-18T07:57:20;100518.99;;;-4.61;48.20
75945;BME280;64628;50.104;14.614;2022-12-18T07:59:46;100520.84;;;-4.59;47.76
75945;BME280;64628;50.104;14.614;2022-12-18T08:02:11;100519.73;;;-4.70;47.99
75945;BME280;64628;50.104;14.614;2022-12-18T08:04:36;100516.26;;;-4.66;47.94
75945;BME280;64628;50.104;14.614;2022-12-18T08:07:02;100513.87;;;-4.53;47.72
75945;BME280;64628;50.104;14.614;2022-12-18T08:09:27;100520.25;;;-5.04;48.81
75945;BME280;64628;50.104;14.614;2022-12-18T08:11:53;100519.95;;;-4.81;48.84
75945;BME280;64628;50.104;14.614;2022-12-18T08:14:18;100521.65;;;-4.67;48.18
75945;BME280;64628;50.104;14.614;2022-12-18T08:16:44;100523.70;;;-4.82;47.91
75945;BME280;64628;50.104;14.614;2022-12-18T08:19:09;100522.72;;;-4.82;47.78
75945;BME280;64628;50.104;14.614;2022-12-18T08:21:35;100522.00;;;-4.81;48.12
75945;BME280;64628;50.104;14.614;2022-12-18T08:24:01;100517.98;;;-5.25;48.23
75945;BME280;64628;50.104;14.614;2022-12-18T08:26:27;100512.23;;;-4.68;47.79
75945;BME280;64628;50.104;14.614;2022-12-18T08:28:52;100513.38;;;-4.90;48.21
75945;BME280;64628;50.104;14.614;2022-12-18T08:31:17;100512.37;;;-4.98;47.97
75945;BME280;64628;50.104;14.614;2022-12-18T08:33:42;100515.08;;;-4.77;48.10
75945;BME280;64628;50.104;14.614;2022-12-18T08:36:09;100522.45;;;-4.74;48.24
75945;BME280;64628;50.104;14.614;2022-12-18T08:38:32;100522.30;;;-4.73;48.32
75945;BME280;64628;50.104;14.614;2022-12-18T08:40:59;100525.24;;;-4.38;47.77
75945;BME280;64628;50.104;14.614;2022-12-18T08:43:23;100523.86;;;-4.76;47.74
75945;BME280;64628;50.104;14.614;2022-12-18T08:45:48;100520.03;;;-4.51;47.47
75945;BME280;64628;50.104;14.614;2022-12-18T08:48:13;100521.87;;;-4.11;47.43
75945;BME280;64628;50.104;14.614;2022-12-18T08:50:39;100527.73;;;-4.51;48.25
75945;BME280;64628;50.104;14.614;2022-12-18T08:53:05;100528.57;;;-4.41;47.79
75945;BME280;64628;50.104;14.614;2022-12-18T08:55:30;100528.72;;;-4.26;47.90
75945;BME280;64628;50.104;14.614;2022-12-18T08:57:56;100530.51;;;-4.10;47.71
75945;BME280;64628;50.104;14.614;2022-12-18T09:00:21;100524.56;;;-4.17;47.36
75945;BME280;64628;50.104;14.614;2022-12-18T09:02:46;100519.14;;;-4.16;46.78
75945;BME280;64628;50.104;14.614;2022-12-18T09:05:12;100517.94;;;-3.99;45.95
75945;BME280;64628;50.104;14.614;2022-12-18T09:07:38;100517.35;;;-3.98;45.31
75945;BME280;64628;50.104;14.614;2022-12-18T09:10:04;100521.25;;;-3.73;45.31
75945;BME280;64628;50.104;14.614;2022-12-18T09:12:28;100524.46;;;-3.91;45.40
75945;BME280;64628;50.104;14.614;2022-12-18T09:14:53;100524.59;;;-3.60;44.81
75945;BME280;64628;50.104;14.614;2022-12-18T09:17:19;100523.90;;;-3.71;44.78
75945;BME280;64628;50.104;14.614;2022-12-18T09:19:45;100524.01;;;-3.33;44.68
75945;BME280;64628;50.104;14.614;2022-12-18T09:22:11;100516.72;;;-3.54;44.50
75945;BME280;64628;50.104;14.614;2022-12-18T09:24:36;100511.59;;;-3.54;44.43
75945;BME280;64628;50.104;14.614;2022-12-18T09:27:01;100513.49;;;-3.65;44.67
75945;BME280;64628;50.104;14.614;2022-12-18T09:29:27;100523.59;;;-3.44;44.29
75945;BME280;64628;50.104;14.614;2022-12-18T09:31:53;100520.97;;;-3.98;45.25
75945;BME280;64628;50.104;14.614;2022-12-18T09:34:18;100518.05;;;-3.62;45.43
75945;BME280;64628;50.104;14.614;2022-12-18T09:36:44;100519.78;;;-3.62;45.28
75945;BME280;64628;50.104;14.614;2022-12-18T09:39:09;100526.09;;;-3.36;44.88
75945;BME280;64628;50.104;14.614;2022-12-18T09:41:41;100531.53;;;-3.49;44.88
75945;BME280;64628;50.104;14.614;2022-12-18T09:44:03;100535.59;;;-3.30;44.42
75945;BME280;64628;50.104;14.614;2022-12-18T09:46:29;100538.38;;;-3.19;44.65
75945;BME280;64628;50.104;14.614;2022-12-18T09:48:53;100539.42;;;-2.92;44.52
75945;BME280;64628;50.104;14.614;2022-12-18T09:51:19;100543.82;;;-2.83;44.04
75945;BME280;64628;50.104;14.614;2022-12-18T09:53:46;100545.51;;;-3.04;44.32
75945;BME280;64628;50.104;14.614;2022-12-18T09:56:12;100543.86;;;-2.89;44.12
75945;BME280;64628;50.104;14.614;2022-12-18T09:58:37;100545.95;;;-2.77;44.36
75945;BME280;64628;50.104;14.614;2022-12-18T10:00:58;100555.03;;;-2.82;44.12
75945;BME280;64628;50.104;14.614;2022-12-18T10:03:24;100563.78;;;-2.87;43.81
75945;BME280;64628;50.104;14.614;2022-12-18T10:05:58;100565.17;;;-2.46;43.84
75945;BME280;64628;50.104;14.614;2022-12-18T10:08:21;100562.50;;;-2.57;44.56
75945;BME280;64628;50.104;14.614;2022-12-18T10:10:46;100564.24;;;-2.51;44.06
75945;BME280;64628;50.104;14.614;2022-12-18T10:13:14;100565.31;;;-2.34;43.92
75945;BME280;64628;50.104;14.614;2022-12-18T10:15:34;100565.68;;;-2.55;42.92
75945;BME280;64628;50.104;14.614;2022-12-18T10:18:00;100562.09;;;-2.41;43.27
75945;BME280;64628;50.104;14.614;2022-12-18T10:20:29;100561.00;;;-2.68;42.80
75945;BME280;64628;50.104;14.614;2022-12-18T10:22:53;100562.63;;;-2.41;43.11
75945;BME280;64628;50.104;14.614;2022-12-18T10:25:21;100557.45;;;-2.29;43.27
75945;BME280;64628;50.104;14.614;2022-12-18T10:27:38;100548.37;;;-2.40;42.82
75945;BME280;64628;50.104;14.614;2022-12-18T10:30:12;100549.44;;;-2.27;42.83
75945;BME280;64628;50.104;14.614;2022-12-18T10:32:29;100547.06;;;-2.28;43.40
75945;BME280;64628;50.104;14.614;2022-12-18T10:34:55;100543.45;;;-2.39;42.72
75945;BME280;64628;50.104;14.614;2022-12-18T10:37:22;100537.72;;;-1.96;42.11
75945;BME280;64628;50.104;14.614;2022-12-18T10:39:46;100528.62;;;-2.02;42.44
75945;BME280;64628;50.104;14.614;2022-12-18T10:42:16;100513.89;;;-2.12;42.09
75945;BME280;64628;50.104;14.614;2022-12-18T10:44:37;100505.98;;;-2.20;42.38
75945;BME280;64628;50.104;14.614;2022-12-18T10:47:04;100507.37;;;-2.35;42.78
75945;BME280;64628;50.104;14.614;2022-12-18T10:49:29;100503.22;;;-2.41;43.11
75945;BME280;64628;50.104;14.614;2022-12-18T10:52:05;100493.09;;;-1.97;42.92
75945;BME280;64628;50.104;14.614;2022-12-18T10:54:21;100490.28;;;-2.30;42.94
75945;BME280;64628;50.104;14.614;2022-12-18T10:56:43;100489.58;;;-2.25;43.00
75945;BME280;64628;50.104;14.614;2022-12-18T10:59:10;100480.47;;;-1.76;42.67
75945;BME280;64628;50.104;14.614;2022-12-18T11:01:47;100474.63;;;-2.07;43.03
75945;BME280;64628;50.104;14.614;2022-12-18T11:04:02;100474.78;;;-2.24;43.76
75945;BME280;64628;50.104;14.614;2022-12-18T11:06:25;100469.53;;;-2.05;43.84
75945;BME280;64628;50.104;14.614;2022-12-18T11:08:59;100469.64;;;-1.87;43.68
75945;BME280;64628;50.104;14.614;2022-12-18T11:11:20;100479.07;;;-2.24;44.17
75945;BME280;64628;50.104;14.614;2022-12-18T11:13:50;100475.27;;;-1.96;44.04
75945;BME280;64628;50.104;14.614;2022-12-18T11:16:07;100470.82;;;-1.67;44.36
75945;BME280;64628;50.104;14.614;2022-12-18T11:18:34;100468.12;;;-1.93;44.26
75945;BME280;64628;50.104;14.614;2022-12-18T11:20:59;100469.80;;;-1.74;43.65
75945;BME280;64628;50.104;14.614;2022-12-18T11:23:23;100472.41;;;-2.33;44.42
75945;BME280;64628;50.104;14.614;2022-12-18T11:25:55;100472.95;;;-2.30;44.72
75945;BME280;64628;50.104;14.614;2022-12-18T11:28:26;100474.79;;;-1.96;44.34
75945;BME280;64628;50.104;14.614;2022-12-18T11:30:40;100480.32;;;-2.31;44.35
75945;BME280;64628;50.104;14.614;2022-12-18T11:33:08;100480.80;;;-1.99;44.27
75945;BME280;64628;50.104;14.614;2022-12-18T11:35:37;100478.26;;;-2.22;44.41
75945;BME280;64628;50.104;14.614;2022-12-18T11:37:59;100471.05;;;-1.88;43.87
75945;BME280;64628;50.104;14.614;2022-12-18T11:40:30;100464.94;;;-2.23;44.07
75945;BME280;64628;50.104;14.614;2022-12-18T11:42:51;100467.70;;;-2.35;44.53
75945;BME280;64628;50.104;14.614;2022-12-18T11:45:25;100474.79;;;-2.11;44.15
75945;BME280;64628;50.104;14.614;2022-12-18T11:47:42;100476.34;;;-2.28;44.43
75945;BME280;64628;50.104;14.614;2022-12-18T11:50:12;100484.40;;;-2.82;44.66
75945;BME280;64628;50.104;14.614;2022-12-18T11:52:34;100489.93;;;-2.48;44.43
75945;BME280;64628;50.104;14.614;2022-12-18T11:54:58;100492.73;;;-2.65;44.69
75945;BME280;64628;50.104;14.614;2022-12-18T11:57:31;100492.34;;;-2.69;44.57
75945;BME280;64628;50.104;14.614;2022-12-18T11:59:53;100487.90;;;-2.47;44.30
75945;BME280;64628;50.104;14.614;2022-12-18T12:02:24;100486.37;;;-2.61;44.63
75945;BME280;64628;50.104;14.614;2022-12-18T12:04:53;100486.04;;;-2.90;44.78
75945;BME280;64628;50.104;14.614;2022-12-18T12:07:10;100489.55;;;-2.95;44.74
75945;BME280;64628;50.104;14.614;2022-12-18T12:09:33;100487.38;;;-2.97;44.80
75945;BME280;64628;50.104;14.614;2022-12-18T12:12:00;100485.06;;;-2.96;45.05
75945;BME280;64628;50.104;14.614;2022-12-18T12:14:32;100483.35;;;-3.09;44.92
75945;BME280;64628;50.104;14.614;2022-12-18T12:16:48;100486.55;;;-3.26;45.26
75945;BME280;64628;50.104;14.614;2022-12-18T12:19:22;100493.14;;;-3.08;45.11
75945;BME280;64628;50.104;14.614;2022-12-18T12:21:40;100497.88;;;-3.26;45.65
75945;BME280;64628;50.104;14.614;2022-12-18T12:24:09;100499.48;;;-3.21;45.46
75945;BME280;64628;50.104;14.614;2022-12-18T12:26:31;100493.60;;;-3.18;45.45
75945;BME280;64628;50.104;14.614;2022-12-18T12:29:00;100484.22;;;-3.26;45.48
75945;BME280;64628;50.104;14.614;2022-12-18T12:31:23;100487.14;;;-3.08;45.33